sensor_id;sensor_type;location;lat;lon;timestamp;P1;durP1;ratioP1;P2;durP2;ratioP2
15307;SDS011;7755;52.208;6.964;2024-03-08T00:00:20;30.63;;;22.57;;
15307;SDS011;7755;52.208;6.964;2024-03-08T00:05:03;30.60;;;22.43;;
15307;SDS011;7755;52.208;6.964;2024-03-08T00:09:41;35.33;;;21.87;;
15307;SDS011;7755;52.208;6.964;2024-03-08T00:14:19;31.00;;;22.37;;
15307;SDS011;7755;52.208;6.964;2024-03-08T00:18:57;33.97;;;22.57;;
15307;SDS011;7755;52.208;6.964;2024-03-08T00:23:38;35.80;;;22.03;;
15307;SDS011;7755;52.208;6.964;2024-03-08T00:28:16;34.07;;;23.17;;
15307;SDS011;7755;52.208;6.964;2024-03-08T00:32:56;31.80;;;23.20;;
15307;SDS011;7755;52.208;6.964;2024-03-08T00:37:34;36.23;;;23.33;;
15307;SDS011;7755;52.208;6.964;2024-03-08T00:42:18;29.90;;;21.27;;
15307;SDS011;7755;52.208;6.964;2024-03-08T00:46:57;30.47;;;23.03;;
15307;SDS011;7755;52.208;6.964;2024-03-08T00:51:35;33.27;;;22.60;;
15307;SDS011;7755;52.208;6.964;2024-03-08T00:56:14;34.80;;;22.97;;
15307;SDS011;7755;52.208;6.964;2024-03-08T01:00:56;31.27;;;21.57;;
15307;SDS011;7755;52.208;6.964;2024-03-08T01:05:35;34.33;;;22.83;;
15307;SDS011;7755;52.208;6.964;2024-03-08T01:10:14;31.00;;;20.87;;
15307;SDS011;7755;52.208;6.964;2024-03-08T01:14:52;37.73;;;23.13;;
15307;SDS011;7755;52.208;6.964;2024-03-08T01:19:33;25.30;;;20.37;;
15307;SDS011;7755;52.208;6.964;2024-03-08T01:24:13;27.70;;;21.17;;
15307;SDS011;7755;52.208;6.964;2024-03-08T01:28:51;32.80;;;21.50;;
15307;SDS011;7755;52.208;6.964;2024-03-08T01:33:23;28.77;;;20.83;;
15307;SDS011;7755;52.208;6.964;2024-03-08T01:38:05;26.53;;;19.43;;
15307;SDS011;7755;52.208;6.964;2024-03-08T01:42:44;29.27;;;21.20;;
15307;SDS011;7755;52.208;6.964;2024-03-08T01:47:23;27.90;;;21.30;;
15307;SDS011;7755;52.208;6.964;2024-03-08T01:52:02;28.40;;;21.07;;
15307;SDS011;7755;52.208;6.964;2024-03-08T01:56:44;28.67;;;19.93;;
15307;SDS011;7755;52.208;6.964;2024-03-08T02:01:23;29.00;;;22.80;;
15307;SDS011;7755;52.208;6.964;2024-03-08T02:06:02;31.17;;;21.17;;
15307;SDS011;7755;52.208;6.964;2024-03-08T02:10:43;29.67;;;20.67;;
15307;SDS011;7755;52.208;6.964;2024-03-08T02:15:25;28.73;;;21.23;;
15307;SDS011;7755;52.208;6.964;2024-03-08T02:20:04;31.33;;;22.27;;
15307;SDS011;7755;52.208;6.964;2024-03-08T02:24:48;26.37;;;20.30;;
15307;SDS011;7755;52.208;6.964;2024-03-08T02:29:26;31.23;;;21.23;;
15307;SDS011;7755;52.208;6.964;2024-03-08T02:34:04;30.10;;;21.17;;
15307;SDS011;7755;52.208;6.964;2024-03-08T02:38:44;30.67;;;22.23;;
15307;SDS011;7755;52.208;6.964;2024-03-08T02:43:27;28.03;;;20.70;;
15307;SDS011;7755;52.208;6.964;2024-03-08T02:48:06;32.10;;;21.47;;
15307;SDS011;7755;52.208;6.964;2024-03-08T02:52:45;28.60;;;21.43;;
15307;SDS011;7755;52.208;6.964;2024-03-08T02:57:23;30.07;;;22.73;;
15307;SDS011;7755;52.208;6.964;2024-03-08T03:02:04;28.43;;;21.03;;
15307;SDS011;7755;52.208;6.964;2024-03-08T03:06:42;30.40;;;22.53;;
15307;SDS011;7755;52.208;6.964;2024-03-08T03:11:20;30.20;;;22.37;;
15307;SDS011;7755;52.208;6.964;2024-03-08T03:15:58;30.80;;;22.83;;
15307;SDS011;7755;52.208;6.964;2024-03-08T03:20:41;30.40;;;22.30;;
15307;SDS011;7755;52.208;6.964;2024-03-08T03:25:19;29.17;;;22.13;;
15307;SDS011;7755;52.208;6.964;2024-03-08T03:30:02;30.90;;;22.27;;
15307;SDS011;7755;52.208;6.964;2024-03-08T03:34:52;28.00;;;21.23;;
15307;SDS011;7755;52.208;6.964;2024-03-08T03:39:36;30.00;;;22.43;;
15307;SDS011;7755;52.208;6.964;2024-03-08T03:44:21;30.17;;;21.87;;
15307;SDS011;7755;52.208;6.964;2024-03-08T03:48:59;30.80;;;22.47;;
15307;SDS011;7755;52.208;6.964;2024-03-08T03:53:37;30.60;;;22.87;;
15307;SDS011;7755;52.208;6.964;2024-03-08T03:58:18;27.30;;;22.27;;
15307;SDS011;7755;52.208;6.964;2024-03-08T04:02:56;31.57;;;22.57;;
15307;SDS011;7755;52.208;6.964;2024-03-08T04:07:34;32.93;;;23.17;;
15307;SDS011;7755;52.208;6.964;2024-03-08T04:12:12;33.53;;;23.63;;
15307;SDS011;7755;52.208;6.964;2024-03-08T04:16:54;31.57;;;21.07;;
15307;SDS011;7755;52.208;6.964;2024-03-08T04:21:32;30.37;;;24.03;;
15307;SDS011;7755;52.208;6.964;2024-03-08T04:26:10;26.77;;;22.60;;
15307;SDS011;7755;52.208;6.964;2024-03-08T04:30:49;35.47;;;24.07;;
15307;SDS011;7755;52.208;6.964;2024-03-08T04:35:32;33.83;;;23.77;;
15307;SDS011;7755;52.208;6.964;2024-03-08T04:40:10;29.97;;;23.27;;
15307;SDS011;7755;52.208;6.964;2024-03-08T04:44:48;32.80;;;24.30;;
15307;SDS011;7755;52.208;6.964;2024-03-08T04:49:26;33.27;;;24.43;;
15307;SDS011;7755;52.208;6.964;2024-03-08T04:54:08;32.40;;;24.03;;
15307;SDS011;7755;52.208;6.964;2024-03-08T04:58:47;33.43;;;25.30;;
15307;SDS011;7755;52.208;6.964;2024-03-08T05:03:25;31.97;;;23.47;;
15307;SDS011;7755;52.208;6.964;2024-03-08T05:08:04;36.37;;;26.63;;
15307;SDS011;7755;52.208;6.964;2024-03-08T05:12:47;34.57;;;23.73;;
15307;SDS011;7755;52.208;6.964;2024-03-08T05:17:25;35.20;;;23.63;;
15307;SDS011;7755;52.208;6.964;2024-03-08T05:22:03;34.27;;;23.27;;
15307;SDS011;7755;52.208;6.964;2024-03-08T05:26:42;33.47;;;25.47;;
15307;SDS011;7755;52.208;6.964;2024-03-08T05:31:23;34.03;;;23.87;;
15307;SDS011;7755;52.208;6.964;2024-03-08T05:36:01;37.67;;;24.87;;
15307;SDS011;7755;52.208;6.964;2024-03-08T05:40:40;35.33;;;25.73;;
15307;SDS011;7755;52.208;6.964;2024-03-08T05:45:19;38.47;;;26.10;;
15307;SDS011;7755;52.208;6.964;2024-03-08T05:50:00;34.97;;;23.80;;
15307;SDS011;7755;52.208;6.964;2024-03-08T05:54:39;35.63;;;24.23;;
15307;SDS011;7755;52.208;6.964;2024-03-08T05:59:17;33.83;;;26.53;;
15307;SDS011;7755;52.208;6.964;2024-03-08T06:03:55;37.43;;;25.47;;
15307;SDS011;7755;52.208;6.964;2024-03-08T06:08:37;35.47;;;25.93;;
15307;SDS011;7755;52.208;6.964;2024-03-08T06:13:17;34.77;;;25.07;;
15307;SDS011;7755;52.208;6.964;2024-03-08T06:17:55;34.23;;;25.27;;
15307;SDS011;7755;52.208;6.964;2024-03-08T06:22:34;50.33;;;33.57;;
15307;SDS011;7755;52.208;6.964;2024-03-08T06:27:16;33.97;;;26.47;;
15307;SDS011;7755;52.208;6.964;2024-03-08T06:32:03;41.00;;;27.47;;
15307;SDS011;7755;52.208;6.964;2024-03-08T06:36:44;41.13;;;30.10;;
15307;SDS011;7755;52.208;6.964;2024-03-08T06:41:29;37.47;;;25.27;;
15307;SDS011;7755;52.208;6.964;2024-03-08T06:46:10;31.90;;;23.33;;
15307;SDS011;7755;52.208;6.964;2024-03-08T06:50:49;37.27;;;26.87;;
15307;SDS011;7755;52.208;6.964;2024-03-08T06:55:27;37.97;;;26.23;;
15307;SDS011;7755;52.208;6.964;2024-03-08T07:00:05;35.37;;;25.43;;
15307;SDS011;7755;52.208;6.964;2024-03-08T07:04:50;35.73;;;23.07;;
15307;SDS011;7755;52.208;6.964;2024-03-08T07:09:30;34.60;;;24.00;;
15307;SDS011;7755;52.208;6.964;2024-03-08T07:14:11;32.93;;;22.27;;
15307;SDS011;7755;52.208;6.964;2024-03-08T07:18:50;37.57;;;25.37;;
15307;SDS011;7755;52.208;6.964;2024-03-08T07:23:30;37.40;;;25.77;;
15307;SDS011;7755;52.208;6.964;2024-03-08T07:28:31;41.13;;;25.53;;
15307;SDS011;7755;52.208;6.964;2024-03-08T07:33:09;38.60;;;25.03;;
15307;SDS011;7755;52.208;6.964;2024-03-08T07:37:47;39.17;;;26.17;;
15307;SDS011;7755;52.208;6.964;2024-03-08T07:42:28;40.13;;;26.20;;
15307;SDS011;7755;52.208;6.964;2024-03-08T07:47:07;36.83;;;25.67;;
15307;SDS011;7755;52.208;6.964;2024-03-08T07:51:47;37.47;;;26.40;;
15307;SDS011;7755;52.208;6.964;2024-03-08T07:56:26;37.77;;;25.77;;
15307;SDS011;7755;52.208;6.964;2024-03-08T08:01:07;38.23;;;27.07;;
15307;SDS011;7755;52.208;6.964;2024-03-08T08:05:46;34.70;;;24.27;;
15307;SDS011;7755;52.208;6.964;2024-03-08T08:10:24;36.63;;;25.07;;
15307;SDS011;7755;52.208;6.964;2024-03-08T08:15:02;32.93;;;24.50;;
15307;SDS011;7755;52.208;6.964;2024-03-08T08:19:45;36.20;;;24.27;;
15307;SDS011;7755;52.208;6.964;2024-03-08T08:24:25;40.43;;;27.03;;
15307;SDS011;7755;52.208;6.964;2024-03-08T08:29:05;36.10;;;24.70;;
15307;SDS011;7755;52.208;6.964;2024-03-08T08:33:43;34.07;;;24.97;;
15307;SDS011;7755;52.208;6.964;2024-03-08T08:38:28;38.07;;;26.07;;
15307;SDS011;7755;52.208;6.964;2024-03-08T08:43:08;38.43;;;25.10;;
15307;SDS011;7755;52.208;6.964;2024-03-08T08:47:40;34.07;;;24.70;;
15307;SDS011;7755;52.208;6.964;2024-03-08T08:52:13;33.07;;;24.53;;
15307;SDS011;7755;52.208;6.964;2024-03-08T08:56:53;33.30;;;24.80;;
15307;SDS011;7755;52.208;6.964;2024-03-08T09:01:36;38.43;;;25.57;;
15307;SDS011;7755;52.208;6.964;2024-03-08T09:06:15;33.53;;;25.27;;
15307;SDS011;7755;52.208;6.964;2024-03-08T09:10:53;36.30;;;26.33;;
15307;SDS011;7755;52.208;6.964;2024-03-08T09:15:33;35.07;;;25.67;;
15307;SDS011;7755;52.208;6.964;2024-03-08T09:20:13;34.70;;;26.43;;
15307;SDS011;7755;52.208;6.964;2024-03-08T09:24:51;33.80;;;24.70;;
15307;SDS011;7755;52.208;6.964;2024-03-08T09:29:29;35.43;;;24.57;;
15307;SDS011;7755;52.208;6.964;2024-03-08T09:34:09;33.73;;;24.87;;
15307;SDS011;7755;52.208;6.964;2024-03-08T09:38:58;36.13;;;25.43;;
15307;SDS011;7755;52.208;6.964;2024-03-08T09:43:37;35.10;;;26.30;;
15307;SDS011;7755;52.208;6.964;2024-03-08T09:48:18;30.57;;;23.90;;
15307;SDS011;7755;52.208;6.964;2024-03-08T09:53:03;35.37;;;24.40;;
15307;SDS011;7755;52.208;6.964;2024-03-08T09:57:42;29.80;;;22.97;;
15307;SDS011;7755;52.208;6.964;2024-03-08T10:02:37;28.00;;;24.13;;
15307;SDS011;7755;52.208;6.964;2024-03-08T10:07:15;30.43;;;24.30;;
15307;SDS011;7755;52.208;6.964;2024-03-08T10:11:56;32.23;;;24.00;;
15307;SDS011;7755;52.208;6.964;2024-03-08T10:16:34;32.73;;;24.00;;
15307;SDS011;7755;52.208;6.964;2024-03-08T10:21:12;34.83;;;24.43;;
15307;SDS011;7755;52.208;6.964;2024-03-08T10:25:51;28.60;;;23.27;;
15307;SDS011;7755;52.208;6.964;2024-03-08T10:30:32;28.77;;;22.83;;
15307;SDS011;7755;52.208;6.964;2024-03-08T10:35:14;30.43;;;24.33;;
15307;SDS011;7755;52.208;6.964;2024-03-08T10:39:56;32.53;;;24.00;;
15307;SDS011;7755;52.208;6.964;2024-03-08T10:44:48;28.57;;;22.23;;
15307;SDS011;7755;52.208;6.964;2024-03-08T10:49:30;26.10;;;21.03;;
15307;SDS011;7755;52.208;6.964;2024-03-08T10:54:04;24.20;;;20.63;;
15307;SDS011;7755;52.208;6.964;2024-03-08T10:58:46;26.73;;;21.83;;
15307;SDS011;7755;52.208;6.964;2024-03-08T11:08:35;25.60;;;21.03;;
15307;SDS011;7755;52.208;6.964;2024-03-08T11:18:12;27.07;;;20.50;;
15307;SDS011;7755;52.208;6.964;2024-03-08T11:22:52;26.97;;;20.47;;
15307;SDS011;7755;52.208;6.964;2024-03-08T11:27:35;26.13;;;20.87;;
15307;SDS011;7755;52.208;6.964;2024-03-08T11:32:15;23.37;;;20.10;;
15307;SDS011;7755;52.208;6.964;2024-03-08T11:36:59;23.70;;;19.93;;
15307;SDS011;7755;52.208;6.964;2024-03-08T11:41:38;25.20;;;20.53;;
15307;SDS011;7755;52.208;6.964;2024-03-08T11:46:19;23.83;;;20.27;;
15307;SDS011;7755;52.208;6.964;2024-03-08T11:51:02;23.07;;;19.90;;
15307;SDS011;7755;52.208;6.964;2024-03-08T11:55:40;24.33;;;20.10;;
15307;SDS011;7755;52.208;6.964;2024-03-08T12:00:20;23.67;;;18.70;;
15307;SDS011;7755;52.208;6.964;2024-03-08T12:05:06;19.17;;;16.13;;
15307;SDS011;7755;52.208;6.964;2024-03-08T12:14:54;21.97;;;17.67;;
15307;SDS011;7755;52.208;6.964;2024-03-08T12:19:33;22.73;;;17.80;;
15307;SDS011;7755;52.208;6.964;2024-03-08T12:24:16;23.07;;;17.70;;
15307;SDS011;7755;52.208;6.964;2024-03-08T12:29:14;23.90;;;18.70;;
15307;SDS011;7755;52.208;6.964;2024-03-08T12:33:53;19.33;;;16.53;;
15307;SDS011;7755;52.208;6.964;2024-03-08T12:38:34;20.07;;;17.83;;
15307;SDS011;7755;52.208;6.964;2024-03-08T12:43:15;19.73;;;17.13;;
15307;SDS011;7755;52.208;6.964;2024-03-08T12:47:54;20.67;;;16.27;;
15307;SDS011;7755;52.208;6.964;2024-03-08T12:52:42;21.90;;;17.90;;
15307;SDS011;7755;52.208;6.964;2024-03-08T12:57:23;19.13;;;16.87;;
15307;SDS011;7755;52.208;6.964;2024-03-08T13:02:05;19.80;;;17.47;;
15307;SDS011;7755;52.208;6.964;2024-03-08T13:06:45;21.00;;;18.03;;
15307;SDS011;7755;52.208;6.964;2024-03-08T13:11:24;24.93;;;17.80;;
15307;SDS011;7755;52.208;6.964;2024-03-08T13:16:05;19.43;;;17.20;;
15307;SDS011;7755;52.208;6.964;2024-03-08T13:20:48;20.53;;;15.97;;
15307;SDS011;7755;52.208;6.964;2024-03-08T13:25:27;21.40;;;17.20;;
15307;SDS011;7755;52.208;6.964;2024-03-08T13:30:07;21.87;;;18.60;;
15307;SDS011;7755;52.208;6.964;2024-03-08T13:34:47;20.80;;;17.77;;
15307;SDS011;7755;52.208;6.964;2024-03-08T13:39:27;21.67;;;17.43;;
15307;SDS011;7755;52.208;6.964;2024-03-08T13:44:09;20.80;;;16.43;;
15307;SDS011;7755;52.208;6.964;2024-03-08T13:48:47;21.97;;;16.80;;
15307;SDS011;7755;52.208;6.964;2024-03-08T13:53:25;20.83;;;17.67;;
15307;SDS011;7755;52.208;6.964;2024-03-08T13:58:06;22.73;;;17.70;;
15307;SDS011;7755;52.208;6.964;2024-03-08T14:02:45;19.50;;;16.97;;
15307;SDS011;7755;52.208;6.964;2024-03-08T14:07:17;22.07;;;18.33;;
15307;SDS011;7755;52.208;6.964;2024-03-08T14:11:57;21.23;;;17.40;;
15307;SDS011;7755;52.208;6.964;2024-03-08T14:16:38;22.87;;;18.20;;
15307;SDS011;7755;52.208;6.964;2024-03-08T14:21:17;22.37;;;18.43;;
15307;SDS011;7755;52.208;6.964;2024-03-08T14:25:55;21.17;;;17.30;;
15307;SDS011;7755;52.208;6.964;2024-03-08T14:30:35;23.67;;;19.37;;
15307;SDS011;7755;52.208;6.964;2024-03-08T14:35:16;23.57;;;18.10;;
15307;SDS011;7755;52.208;6.964;2024-03-08T14:39:54;22.67;;;18.57;;
15307;SDS011;7755;52.208;6.964;2024-03-08T14:44:26;20.30;;;18.13;;
15307;SDS011;7755;52.208;6.964;2024-03-08T14:49:05;24.63;;;19.00;;
15307;SDS011;7755;52.208;6.964;2024-03-08T14:53:45;22.10;;;18.53;;
15307;SDS011;7755;52.208;6.964;2024-03-08T14:58:24;23.93;;;19.53;;
15307;SDS011;7755;52.208;6.964;2024-03-08T15:03:02;21.13;;;18.83;;
15307;SDS011;7755;52.208;6.964;2024-03-08T15:07:42;25.13;;;19.80;;
15307;SDS011;7755;52.208;6.964;2024-03-08T15:12:24;26.53;;;21.43;;
15307;SDS011;7755;52.208;6.964;2024-03-08T15:17:03;23.27;;;19.30;;
15307;SDS011;7755;52.208;6.964;2024-03-08T15:21:49;24.53;;;18.30;;
15307;SDS011;7755;52.208;6.964;2024-03-08T15:26:28;22.00;;;18.23;;
15307;SDS011;7755;52.208;6.964;2024-03-08T15:31:13;21.13;;;18.27;;
15307;SDS011;7755;52.208;6.964;2024-03-08T15:35:54;24.00;;;17.90;;
15307;SDS011;7755;52.208;6.964;2024-03-08T15:40:38;21.03;;;17.30;;
15307;SDS011;7755;52.208;6.964;2024-03-08T15:45:18;20.40;;;17.07;;
15307;SDS011;7755;52.208;6.964;2024-03-08T15:50:00;22.70;;;17.70;;
15307;SDS011;7755;52.208;6.964;2024-03-08T15:54:42;21.67;;;16.83;;
15307;SDS011;7755;52.208;6.964;2024-03-08T15:59:22;21.90;;;17.50;;
15307;SDS011;7755;52.208;6.964;2024-03-08T16:04:05;21.83;;;18.60;;
15307;SDS011;7755;52.208;6.964;2024-03-08T16:08:45;22.00;;;18.77;;
15307;SDS011;7755;52.208;6.964;2024-03-08T16:13:24;22.03;;;18.17;;
15307;SDS011;7755;52.208;6.964;2024-03-08T16:18:06;21.00;;;18.67;;
15307;SDS011;7755;52.208;6.964;2024-03-08T16:22:44;21.83;;;18.03;;
15307;SDS011;7755;52.208;6.964;2024-03-08T16:27:25;24.77;;;18.93;;
15307;SDS011;7755;52.208;6.964;2024-03-08T16:32:05;22.40;;;17.80;;
15307;SDS011;7755;52.208;6.964;2024-03-08T16:36:44;23.37;;;18.40;;
15307;SDS011;7755;52.208;6.964;2024-03-08T16:41:23;25.07;;;19.63;;
15307;SDS011;7755;52.208;6.964;2024-03-08T16:46:03;24.93;;;18.83;;
15307;SDS011;7755;52.208;6.964;2024-03-08T16:50:42;24.43;;;19.43;;
15307;SDS011;7755;52.208;6.964;2024-03-08T16:55:23;23.60;;;19.27;;
15307;SDS011;7755;52.208;6.964;2024-03-08T17:00:02;26.33;;;20.00;;
15307;SDS011;7755;52.208;6.964;2024-03-08T17:04:44;24.83;;;19.57;;
15307;SDS011;7755;52.208;6.964;2024-03-08T17:09:24;27.90;;;19.67;;
15307;SDS011;7755;52.208;6.964;2024-03-08T17:14:03;25.07;;;19.10;;
15307;SDS011;7755;52.208;6.964;2024-03-08T17:18:41;24.43;;;20.07;;
15307;SDS011;7755;52.208;6.964;2024-03-08T17:23:21;28.10;;;22.27;;
15307;SDS011;7755;52.208;6.964;2024-03-08T17:28:00;27.33;;;21.57;;
15307;SDS011;7755;52.208;6.964;2024-03-08T17:32:40;25.97;;;20.47;;
15307;SDS011;7755;52.208;6.964;2024-03-08T17:37:22;23.37;;;18.33;;
15307;SDS011;7755;52.208;6.964;2024-03-08T17:42:03;27.27;;;21.30;;
15307;SDS011;7755;52.208;6.964;2024-03-08T17:46:41;26.63;;;19.90;;
15307;SDS011;7755;52.208;6.964;2024-03-08T17:51:19;24.50;;;19.70;;
15307;SDS011;7755;52.208;6.964;2024-03-08T17:56:00;26.97;;;20.73;;
15307;SDS011;7755;52.208;6.964;2024-03-08T18:00:43;27.93;;;20.53;;
15307;SDS011;7755;52.208;6.964;2024-03-08T18:05:22;26.30;;;19.13;;
15307;SDS011;7755;52.208;6.964;2024-03-08T18:10:05;25.23;;;20.37;;
15307;SDS011;7755;52.208;6.964;2024-03-08T18:14:47;27.60;;;19.80;;
15307;SDS011;7755;52.208;6.964;2024-03-08T18:19:29;26.93;;;20.90;;
15307;SDS011;7755;52.208;6.964;2024-03-08T18:24:08;26.23;;;20.00;;
15307;SDS011;7755;52.208;6.964;2024-03-08T18:28:47;32.83;;;21.90;;
15307;SDS011;7755;52.208;6.964;2024-03-08T18:33:25;26.27;;;20.87;;
15307;SDS011;7755;52.208;6.964;2024-03-08T18:38:05;27.07;;;19.47;;
15307;SDS011;7755;52.208;6.964;2024-03-08T18:42:47;29.97;;;21.30;;
15307;SDS011;7755;52.208;6.964;2024-03-08T18:47:25;26.13;;;20.93;;
15307;SDS011;7755;52.208;6.964;2024-03-08T18:52:03;28.40;;;19.97;;
15307;SDS011;7755;52.208;6.964;2024-03-08T18:56:44;25.60;;;19.57;;
15307;SDS011;7755;52.208;6.964;2024-03-08T19:01:23;25.93;;;19.53;;
15307;SDS011;7755;52.208;6.964;2024-03-08T19:06:05;27.17;;;21.03;;
15307;SDS011;7755;52.208;6.964;2024-03-08T19:10:46;29.27;;;22.23;;
15307;SDS011;7755;52.208;6.964;2024-03-08T19:15:29;27.63;;;20.77;;
15307;SDS011;7755;52.208;6.964;2024-03-08T19:20:08;28.40;;;21.03;;
15307;SDS011;7755;52.208;6.964;2024-03-08T19:24:48;29.23;;;21.20;;
15307;SDS011;7755;52.208;6.964;2024-03-08T19:29:28;31.80;;;22.00;;
15307;SDS011;7755;52.208;6.964;2024-03-08T19:34:02;31.43;;;21.83;;
15307;SDS011;7755;52.208;6.964;2024-03-08T19:38:41;30.50;;;21.83;;
15307;SDS011;7755;52.208;6.964;2024-03-08T19:43:20;28.33;;;21.70;;
15307;SDS011;7755;52.208;6.964;2024-03-08T19:47:59;32.23;;;23.00;;
15307;SDS011;7755;52.208;6.964;2024-03-08T19:52:47;32.03;;;23.13;;
15307;SDS011;7755;52.208;6.964;2024-03-08T19:57:32;30.70;;;22.33;;
15307;SDS011;7755;52.208;6.964;2024-03-08T20:02:12;37.87;;;24.60;;
15307;SDS011;7755;52.208;6.964;2024-03-08T20:06:53;31.37;;;23.27;;
15307;SDS011;7755;52.208;6.964;2024-03-08T20:11:36;32.73;;;24.00;;
15307;SDS011;7755;52.208;6.964;2024-03-08T20:16:17;47.07;;;32.77;;
15307;SDS011;7755;52.208;6.964;2024-03-08T20:20:56;33.63;;;25.93;;
15307;SDS011;7755;52.208;6.964;2024-03-08T20:25:34;36.67;;;25.10;;
15307;SDS011;7755;52.208;6.964;2024-03-08T20:30:16;34.03;;;24.83;;
15307;SDS011;7755;52.208;6.964;2024-03-08T20:34:55;34.60;;;24.83;;
15307;SDS011;7755;52.208;6.964;2024-03-08T20:39:33;34.20;;;24.57;;
15307;SDS011;7755;52.208;6.964;2024-03-08T20:44:11;34.73;;;25.60;;
15307;SDS011;7755;52.208;6.964;2024-03-08T20:48:51;34.83;;;24.03;;
15307;SDS011;7755;52.208;6.964;2024-03-08T20:53:31;34.77;;;23.80;;
15307;SDS011;7755;52.208;6.964;2024-03-08T20:58:03;35.40;;;25.57;;
15307;SDS011;7755;52.208;6.964;2024-03-08T21:02:42;36.33;;;25.43;;
15307;SDS011;7755;52.208;6.964;2024-03-08T21:07:23;33.10;;;25.23;;
15307;SDS011;7755;52.208;6.964;2024-03-08T21:12:05;39.47;;;26.57;;
15307;SDS011;7755;52.208;6.964;2024-03-08T21:16:47;33.87;;;24.57;;
15307;SDS011;7755;52.208;6.964;2024-03-08T21:21:26;33.57;;;24.57;;
15307;SDS011;7755;52.208;6.964;2024-03-08T21:26:07;40.87;;;32.57;;
15307;SDS011;7755;52.208;6.964;2024-03-08T21:30:47;44.30;;;31.30;;
15307;SDS011;7755;52.208;6.964;2024-03-08T21:35:29;43.27;;;28.00;;
15307;SDS011;7755;52.208;6.964;2024-03-08T21:40:07;38.20;;;26.77;;
15307;SDS011;7755;52.208;6.964;2024-03-08T21:44:52;34.83;;;25.43;;
15307;SDS011;7755;52.208;6.964;2024-03-08T21:49:32;35.70;;;25.37;;
15307;SDS011;7755;52.208;6.964;2024-03-08T21:54:13;37.30;;;26.53;;
15307;SDS011;7755;52.208;6.964;2024-03-08T21:58:51;37.03;;;25.17;;
15307;SDS011;7755;52.208;6.964;2024-03-08T22:03:32;37.67;;;25.83;;
15307;SDS011;7755;52.208;6.964;2024-03-08T22:08:11;36.23;;;26.27;;
15307;SDS011;7755;52.208;6.964;2024-03-08T22:12:50;41.17;;;27.07;;
15307;SDS011;7755;52.208;6.964;2024-03-08T22:17:29;40.43;;;27.37;;
15307;SDS011;7755;52.208;6.964;2024-03-08T22:22:11;38.83;;;27.50;;
15307;SDS011;7755;52.208;6.964;2024-03-08T22:26:50;39.97;;;28.13;;
15307;SDS011;7755;52.208;6.964;2024-03-08T22:31:29;35.10;;;25.50;;
15307;SDS011;7755;52.208;6.964;2024-03-08T22:36:09;35.30;;;26.57;;
15307;SDS011;7755;52.208;6.964;2024-03-08T22:40:50;39.10;;;27.53;;
15307;SDS011;7755;52.208;6.964;2024-03-08T22:45:30;41.43;;;27.77;;
15307;SDS011;7755;52.208;6.964;2024-03-08T22:50:10;37.70;;;26.87;;
15307;SDS011;7755;52.208;6.964;2024-03-08T22:54:53;39.97;;;28.10;;
15307;SDS011;7755;52.208;6.964;2024-03-08T22:59:37;36.67;;;25.67;;
15307;SDS011;7755;52.208;6.964;2024-03-08T23:04:18;40.43;;;26.90;;
15307;SDS011;7755;52.208;6.964;2024-03-08T23:08:56;37.10;;;25.23;;
15307;SDS011;7755;52.208;6.964;2024-03-08T23:13:41;35.10;;;26.37;;
15307;SDS011;7755;52.208;6.964;2024-03-08T23:18:21;37.60;;;26.13;;
15307;SDS011;7755;52.208;6.964;2024-03-08T23:23:02;39.13;;;25.87;;
15307;SDS011;7755;52.208;6.964;2024-03-08T23:27:41;38.43;;;26.53;;
15307;SDS011;7755;52.208;6.964;2024-03-08T23:32:20;39.17;;;27.07;;
15307;SDS011;7755;52.208;6.964;2024-03-08T23:37:00;37.70;;;26.20;;
15307;SDS011;7755;52.208;6.964;2024-03-08T23:41:40;34.60;;;24.70;;
15307;SDS011;7755;52.208;6.964;2024-03-08T23:46:18;36.43;;;26.17;;
15307;SDS011;7755;52.208;6.964;2024-03-08T23:50:56;36.17;;;26.90;;
15307;SDS011;7755;52.208;6.964;2024-03-08T23:55:37;39.83;;;25.87;;
